createdAt,value
2018-07-13T00:02:21.626Z,70.10
2018-07-13T00:04:50.103Z,69.40
2018-07-13T00:07:18.637Z,69.40
2018-07-13T00:09:47.171Z,69.40
2018-07-13T00:12:15.666Z,69.30
2018-07-13T00:15:15.138Z,69.40
2018-07-13T00:17:43.590Z,69.60
2018-07-13T00:20:12.105Z,69.50
2018-07-13T00:22:40.575Z,69.60
2018-07-13T00:25:09.132Z,69.70
2018-07-13T00:27:37.647Z,69.70
2018-07-13T00:30:06.142Z,69.70
2018-07-13T00:32:34.638Z,69.80
2018-07-13T00:35:03.186Z,69.60
2018-07-13T00:37:31.676Z,69.70
2018-07-13T00:40:00.167Z,69.70
2018-07-13T00:44:56.828Z,70.30
2018-07-13T00:47:25.298Z,69.80
2018-07-13T00:49:53.876Z,70.70
2018-07-13T00:52:22.405Z,70.10
2018-07-13T00:54:50.869Z,70.00
2018-07-13T00:57:19.413Z,70.10
2018-07-13T00:59:47.910Z,70.10
2018-07-13T01:02:16.396Z,70.10
2018-07-13T01:04:44.848Z,70.10
2018-07-13T01:07:13.433Z,70.10
2018-07-13T01:09:41.886Z,70.10
2018-07-13T01:12:10.405Z,70.10
2018-07-13T01:14:38.903Z,70.10
2018-07-13T01:17:07.428Z,70.10
2018-07-13T01:19:35.900Z,70.00
2018-07-13T01:22:04.470Z,70.20
2018-07-13T01:24:32.949Z,71.00
2018-07-13T01:27:01.436Z,70.20
2018-07-13T01:29:29.925Z,70.20
2018-07-13T01:31:58.413Z,70.20
2018-07-13T01:34:27.058Z,70.10
2018-07-13T01:39:23.802Z,70.10
2018-07-13T01:41:52.413Z,70.40
2018-07-13T01:46:49.111Z,70.40
2018-07-13T01:49:17.631Z,70.50
2018-07-13T01:51:46.104Z,70.30
2018-07-13T01:54:14.627Z,70.30
2018-07-13T01:56:43.151Z,70.30
2018-07-13T01:59:11.657Z,70.30
2018-07-13T02:01:40.159Z,70.30
2018-07-13T02:04:08.621Z,70.30
2018-07-13T02:06:37.061Z,70.30
2018-07-13T02:09:07.592Z,70.40
2018-07-13T02:11:36.020Z,70.40
2018-07-13T02:14:04.934Z,70.30
2018-07-13T02:16:33.371Z,70.20
2018-07-13T02:21:30.067Z,70.30
2018-07-13T02:23:58.742Z,70.20
2018-07-13T02:26:27.190Z,70.30
2018-07-13T02:28:55.702Z,70.20
2018-07-13T02:31:24.161Z,69.90
2018-07-13T02:33:52.782Z,70.40
2018-07-13T02:36:22.209Z,70.40
2018-07-13T02:38:50.696Z,70.30
2018-07-13T02:41:19.168Z,70.40
2018-07-13T02:43:47.692Z,70.40
2018-07-13T02:46:16.197Z,70.40
2018-07-13T02:48:44.807Z,70.40
2018-07-13T02:53:41.541Z,70.40
2018-07-13T02:56:10.122Z,70.40
2018-07-13T02:58:38.647Z,70.50
2018-07-13T03:03:35.504Z,70.50
2018-07-13T03:06:04.067Z,70.60
2018-07-13T03:08:32.657Z,70.60
2018-07-13T03:11:01.303Z,70.50
2018-07-13T03:13:29.823Z,70.60
2018-07-13T03:15:58.295Z,70.70
2018-07-13T03:18:26.727Z,70.60
2018-07-13T03:20:55.337Z,70.60
2018-07-13T03:25:57.604Z,70.70
2018-07-13T03:28:26.159Z,70.70
2018-07-13T03:30:54.701Z,71.40
2018-07-13T03:35:51.411Z,70.70
2018-07-13T03:38:19.965Z,70.70
2018-07-13T03:43:16.782Z,70.80
2018-07-13T03:45:45.293Z,70.70
2018-07-13T03:50:42.225Z,70.70
2018-07-13T03:53:10.987Z,70.60
2018-07-13T03:55:39.502Z,70.60
2018-07-13T03:58:08.016Z,70.50
2018-07-13T04:00:36.520Z,70.50
2018-07-13T04:03:05.027Z,70.60
2018-07-13T04:05:33.502Z,70.50
2018-07-13T04:08:02.376Z,70.60
2018-07-13T04:10:31.888Z,70.50
2018-07-13T04:15:29.064Z,70.50
2018-07-13T04:17:57.612Z,70.60
2018-07-13T04:20:26.184Z,70.60
2018-07-13T04:22:54.760Z,70.60
2018-07-13T04:25:23.311Z,70.70
2018-07-13T04:27:52.019Z,70.60
2018-07-13T04:30:20.575Z,70.60
2018-07-13T04:32:49.042Z,70.50
2018-07-13T04:35:17.559Z,70.60
2018-07-13T04:37:46.035Z,70.50
2018-07-13T04:40:14.589Z,70.60
2018-07-13T04:42:43.084Z,70.60
2018-07-13T04:45:11.605Z,70.60
2018-07-13T04:47:40.107Z,70.60
2018-07-13T04:50:08.663Z,70.70
2018-07-13T04:52:37.183Z,70.60
2018-07-13T04:57:33.965Z,70.60
2018-07-13T05:00:02.548Z,70.40
2018-07-13T05:02:31.194Z,70.40
2018-07-13T05:04:59.732Z,70.40
2018-07-13T05:07:28.266Z,70.40
2018-07-13T05:09:56.734Z,70.40
2018-07-13T05:12:25.260Z,70.40
2018-07-13T05:17:22.018Z,70.40
2018-07-13T05:19:50.521Z,70.50
2018-07-13T05:24:47.284Z,70.50
2018-07-13T05:27:15.832Z,70.40
2018-07-13T05:29:44.474Z,70.20
2018-07-13T05:32:13.057Z,70.20
2018-07-13T05:37:09.773Z,70.10
2018-07-13T05:39:38.316Z,70.20
2018-07-13T05:42:07.086Z,70.20
2018-07-13T05:44:35.595Z,70.30
2018-07-13T05:47:04.204Z,70.30
2018-07-13T05:49:32.820Z,70.20
2018-07-13T05:52:01.346Z,70.10
2018-07-13T05:56:58.134Z,70.20
2018-07-13T05:59:27.143Z,70.00
2018-07-13T06:01:55.698Z,69.70
2018-07-13T06:06:52.464Z,69.70
2018-07-13T06:11:49.218Z,69.80
2018-07-13T06:14:17.637Z,69.80
2018-07-13T06:16:46.125Z,69.80
2018-07-13T06:19:14.578Z,70.00
2018-07-13T06:21:43.042Z,70.00
2018-07-13T06:24:11.546Z,70.00
2018-07-13T06:26:40.031Z,70.00
2018-07-13T06:29:08.582Z,70.00
2018-07-13T06:31:37.151Z,70.00
2018-07-13T06:34:05.763Z,70.10
2018-07-13T06:36:34.305Z,70.10
2018-07-13T06:39:02.921Z,70.10
2018-07-13T06:41:31.485Z,70.00
2018-07-13T06:44:00.010Z,69.80
2018-07-13T06:46:28.546Z,69.80
2018-07-13T06:48:57.030Z,70.00
2018-07-13T06:53:53.755Z,69.80
2018-07-13T06:56:22.291Z,70.20
2018-07-13T06:58:58.720Z,70.20
2018-07-13T07:01:27.562Z,70.30
2018-07-13T07:04:30.620Z,70.20
2018-07-13T07:09:28.695Z,70.00
2018-07-13T07:14:20.842Z,69.70
2018-07-13T07:16:49.470Z,69.80
2018-07-13T07:21:46.210Z,69.90
2018-07-13T07:24:14.840Z,70.00
2018-07-13T07:26:43.341Z,70.00
2018-07-13T07:29:12.035Z,70.00
2018-07-13T07:31:40.574Z,69.90
2018-07-13T07:36:37.349Z,69.80
2018-07-13T07:39:10.068Z,69.60
2018-07-13T07:41:38.926Z,69.60
2018-07-13T07:44:07.546Z,69.50
2018-07-13T07:46:36.242Z,69.50
2018-07-13T07:49:04.737Z,69.60
2018-07-13T07:51:33.652Z,69.70
2018-07-13T07:54:02.405Z,69.60
2018-07-13T07:56:31.856Z,69.60
2018-07-13T07:59:00.320Z,69.50
2018-07-13T08:01:28.827Z,69.50
2018-07-13T08:03:57.352Z,69.40
2018-07-13T08:06:26.105Z,69.30
2018-07-13T08:08:54.599Z,69.40
2018-07-13T08:11:23.108Z,69.50
2018-07-13T08:16:20.800Z,69.50
2018-07-13T08:18:49.378Z,69.40
2018-07-13T08:21:17.923Z,69.50
2018-07-13T08:23:46.478Z,69.30
2018-07-13T08:26:15.016Z,69.40
2018-07-13T08:28:45.189Z,69.50
2018-07-13T08:31:13.739Z,69.60
2018-07-13T08:33:42.304Z,69.50
2018-07-13T08:36:10.789Z,69.50
2018-07-13T08:38:39.466Z,69.40
2018-07-13T08:41:08.769Z,69.40
2018-07-13T08:43:38.020Z,69.40
2018-07-13T08:48:35.271Z,69.30
2018-07-13T08:51:03.834Z,69.30
2018-07-13T08:53:32.492Z,69.40
2018-07-13T08:56:00.999Z,69.30
2018-07-13T08:58:29.555Z,69.20
2018-07-13T09:03:26.221Z,69.30
2018-07-13T09:08:23.850Z,69.40
2018-07-13T09:10:52.368Z,69.30
2018-07-13T09:13:20.880Z,69.20
2018-07-13T09:18:17.679Z,68.90
2018-07-13T09:20:46.183Z,68.90
2018-07-13T09:23:14.726Z,69.00
2018-07-13T09:25:43.252Z,68.90
2018-07-13T09:28:11.736Z,69.00
2018-07-13T09:30:40.250Z,68.80
2018-07-13T09:33:08.833Z,68.80
2018-07-13T09:35:37.383Z,68.80
2018-07-13T09:38:05.977Z,68.80
2018-07-13T09:40:34.665Z,68.60
2018-07-13T09:43:03.631Z,68.70
2018-07-13T09:45:32.639Z,68.70
2018-07-13T09:48:01.374Z,68.60
2018-07-13T09:50:30.127Z,68.40
2018-07-13T09:52:58.806Z,68.40
2018-07-13T09:55:27.464Z,68.50
2018-07-13T09:57:56.283Z,68.50
2018-07-13T10:00:29.071Z,68.40
2018-07-13T10:02:57.755Z,68.30
2018-07-13T10:07:54.434Z,68.30
2018-07-13T10:10:22.923Z,68.40
2018-07-13T10:12:51.408Z,68.40
2018-07-13T10:15:19.888Z,68.20
2018-07-13T10:17:48.429Z,68.10
2018-07-13T10:20:16.955Z,68.10
2018-07-13T10:22:45.524Z,67.80
2018-07-13T10:25:14.174Z,67.80
2018-07-13T10:27:43.630Z,68.00
2018-07-13T10:30:17.226Z,67.70
2018-07-13T10:32:46.537Z,67.40
2018-07-13T10:37:43.519Z,67.20
2018-07-13T10:42:40.280Z,67.00
2018-07-13T10:47:36.931Z,67.10
2018-07-13T10:50:05.513Z,67.00
2018-07-13T10:55:02.206Z,66.40
2018-07-13T10:57:30.716Z,66.60
2018-07-13T10:59:59.203Z,66.40
2018-07-13T11:02:27.662Z,66.30
2018-07-13T11:04:56.181Z,66.30
2018-07-13T11:07:24.636Z,66.30
2018-07-13T11:09:53.116Z,66.30
2018-07-13T11:12:21.583Z,66.10
2018-07-13T11:14:50.031Z,65.90
2018-07-13T11:17:18.537Z,65.80
2018-07-13T11:19:47.059Z,65.50
2018-07-13T11:24:43.751Z,64.80
2018-07-13T11:27:12.307Z,64.60
2018-07-13T11:29:40.826Z,64.70
2018-07-13T11:32:09.340Z,64.70
2018-07-13T11:34:37.846Z,64.50
2018-07-13T11:37:06.506Z,64.00
2018-07-13T11:39:34.880Z,64.20
2018-07-13T11:42:03.479Z,64.30
2018-07-13T11:44:31.956Z,64.40
2018-07-13T11:47:00.495Z,64.50
2018-07-13T11:56:53.589Z,64.00
2018-07-13T11:59:22.064Z,64.00
2018-07-13T12:01:50.612Z,64.00
2018-07-13T12:04:19.021Z,64.00
2018-07-13T12:06:47.523Z,63.90
2018-07-13T12:09:16.047Z,64.00
2018-07-13T12:16:41.028Z,64.40
2018-07-13T12:19:09.520Z,64.10
2018-07-13T12:21:38.022Z,64.00
2018-07-13T12:24:06.644Z,63.90
2018-07-13T12:26:35.078Z,64.00
2018-07-13T12:29:03.694Z,63.90
2018-07-13T12:31:32.178Z,63.60
2018-07-13T12:34:00.666Z,63.30
2018-07-13T12:36:29.191Z,63.30
2018-07-13T12:41:25.904Z,63.10
2018-07-13T12:43:54.401Z,63.00
2018-07-13T12:46:22.905Z,63.00
2018-07-13T12:48:51.375Z,62.90
2018-07-13T12:51:19.877Z,62.80
2018-07-13T12:53:48.542Z,62.80
2018-07-13T12:56:16.973Z,62.70
2018-07-13T12:58:45.488Z,62.60
2018-07-13T13:01:14.171Z,62.40
2018-07-13T13:03:42.700Z,62.30
2018-07-13T13:06:11.143Z,62.20
2018-07-13T13:08:39.707Z,62.10
2018-07-13T13:11:08.179Z,61.90
2018-07-13T13:13:36.703Z,61.90
2018-07-13T13:16:05.240Z,61.80
2018-07-13T13:18:33.708Z,61.90
2018-07-13T13:21:02.296Z,61.90
2018-07-13T13:23:30.744Z,61.70
2018-07-13T13:25:59.313Z,61.70
2018-07-13T13:30:55.981Z,61.60
2018-07-13T13:33:24.561Z,61.40
2018-07-13T13:38:21.200Z,61.20
2018-07-13T13:40:49.732Z,61.20
2018-07-13T13:43:18.176Z,61.20
2018-07-13T13:45:46.672Z,61.00
2018-07-13T13:50:43.392Z,61.60
2018-07-13T13:53:11.868Z,60.90
2018-07-13T13:55:40.413Z,60.80
2018-07-13T13:58:08.846Z,60.80
2018-07-13T14:00:37.358Z,60.80
2018-07-13T14:03:05.838Z,60.70
2018-07-13T14:05:34.332Z,60.60
2018-07-13T14:08:02.843Z,60.80
2018-07-13T14:12:59.580Z,60.50
2018-07-13T14:15:28.076Z,60.50
2018-07-13T14:17:56.603Z,60.50
2018-07-13T14:20:25.086Z,60.30
2018-07-13T14:22:53.613Z,60.30
2018-07-13T14:25:22.089Z,60.30
2018-07-13T14:27:50.618Z,60.10
2018-07-13T14:30:19.096Z,60.20
2018-07-13T14:32:47.593Z,60.00
2018-07-13T14:37:44.322Z,60.00
2018-07-13T14:40:12.801Z,60.00
2018-07-13T14:42:41.331Z,60.00
2018-07-13T14:45:09.824Z,60.00
2018-07-13T14:47:38.344Z,60.00
2018-07-13T14:50:07.050Z,60.80
2018-07-13T14:52:35.616Z,60.00
2018-07-13T14:55:04.287Z,60.10
2018-07-13T15:00:00.954Z,60.00
2018-07-13T15:04:57.605Z,59.80
2018-07-13T15:07:26.212Z,60.60
2018-07-13T15:09:54.722Z,60.20
2018-07-13T15:12:23.165Z,60.00
2018-07-13T15:17:19.944Z,59.90
2018-07-13T15:19:48.484Z,59.90
2018-07-13T15:22:16.967Z,59.90
2018-07-13T15:24:45.505Z,59.80
2018-07-13T15:27:13.998Z,59.90
2018-07-13T15:29:42.472Z,59.90
2018-07-13T15:34:39.156Z,59.90
2018-07-13T15:37:07.657Z,59.90
2018-07-13T15:39:36.190Z,60.00
2018-07-13T15:42:04.679Z,60.00
2018-07-13T15:44:33.205Z,60.10
2018-07-13T15:47:01.732Z,60.00
2018-07-13T15:49:30.220Z,60.00
2018-07-13T15:51:58.671Z,60.20
2018-07-13T15:54:27.186Z,60.20
2018-07-13T15:56:55.662Z,60.10
2018-07-13T15:59:24.469Z,60.10
2018-07-13T16:01:53.043Z,60.20
2018-07-13T16:04:21.544Z,60.10
2018-07-13T16:06:50.138Z,60.00
2018-07-13T16:09:18.594Z,60.10
2018-07-13T16:11:47.083Z,60.10
2018-07-13T16:14:15.532Z,60.20
2018-07-13T16:16:44.027Z,60.20
2018-07-13T16:19:12.533Z,60.20
2018-07-13T16:21:41.004Z,60.20
2018-07-13T16:24:09.521Z,60.30
2018-07-13T16:26:38.390Z,60.30
2018-07-13T16:29:06.815Z,60.20
2018-07-13T16:31:35.260Z,60.30
2018-07-13T16:34:03.794Z,60.60
2018-07-13T16:36:32.293Z,60.80
2018-07-13T16:41:28.982Z,61.10
2018-07-13T16:43:57.457Z,61.10
2018-07-13T16:48:54.176Z,61.20
2018-07-13T16:51:22.639Z,61.40
2018-07-13T16:53:51.139Z,61.40
2018-07-13T16:56:19.689Z,61.40
2018-07-13T16:58:48.147Z,61.30
2018-07-13T17:01:16.619Z,61.40
2018-07-13T17:03:45.129Z,61.60
2018-07-13T17:08:42.283Z,61.90
2018-07-13T17:11:10.772Z,61.90
2018-07-13T17:13:39.285Z,61.70
2018-07-13T17:16:07.764Z,61.70
2018-07-13T17:23:43.029Z,61.50
2018-07-13T17:26:11.658Z,61.40
2018-07-13T17:28:40.220Z,61.40
2018-07-13T17:33:37.073Z,61.60
2018-07-13T17:36:05.556Z,61.40
2018-07-13T17:38:34.110Z,61.40
2018-07-13T17:41:02.568Z,61.80
2018-07-13T17:43:31.031Z,61.80
2018-07-13T17:45:59.531Z,62.20
2018-07-13T17:48:27.986Z,62.40
2018-07-13T17:53:24.691Z,62.60
2018-07-13T17:55:53.167Z,62.50
2018-07-13T17:58:21.648Z,62.70
2018-07-13T18:03:18.448Z,63.20
2018-07-13T18:05:47.026Z,63.30
2018-07-13T18:08:15.776Z,63.30
2018-07-13T18:10:44.232Z,63.20
2018-07-13T18:13:12.799Z,63.30
2018-07-13T18:15:41.366Z,63.30
2018-07-13T18:18:09.865Z,63.30
2018-07-13T18:20:38.427Z,63.30
2018-07-13T18:25:35.142Z,63.30
2018-07-13T18:28:03.687Z,63.40
2018-07-13T18:30:32.188Z,63.30
2018-07-13T18:33:00.857Z,63.40
2018-07-13T18:35:29.385Z,63.50
2018-07-13T18:37:57.858Z,63.60
2018-07-13T18:40:26.305Z,63.60
2018-07-13T18:47:51.693Z,63.70
2018-07-13T18:50:20.257Z,63.80
2018-07-13T18:52:48.747Z,63.80
2018-07-13T18:55:17.283Z,64.00
2018-07-13T18:57:45.911Z,63.90
2018-07-13T19:02:43.051Z,64.00
2018-07-13T19:05:11.538Z,64.00
2018-07-13T19:07:40.125Z,64.10
2018-07-13T19:10:08.622Z,64.20
2018-07-13T19:12:37.130Z,64.20
2018-07-13T19:17:33.887Z,64.20
2018-07-13T19:20:02.412Z,64.20
2018-07-13T19:22:30.881Z,64.20
2018-07-13T19:24:59.319Z,64.00
2018-07-13T19:27:27.831Z,64.10
2018-07-13T19:32:24.596Z,64.10
2018-07-13T19:34:53.029Z,64.20
2018-07-13T19:37:21.539Z,64.10
2018-07-13T19:39:49.978Z,64.20
2018-07-13T19:44:46.703Z,64.30
2018-07-13T19:47:15.199Z,64.50
2018-07-13T19:49:43.693Z,64.50
2018-07-13T19:52:12.210Z,64.60
2018-07-13T19:54:41.027Z,64.60
2018-07-13T19:57:09.580Z,64.50
2018-07-13T19:59:38.019Z,64.50
2018-07-13T20:02:06.852Z,64.50
2018-07-13T20:04:35.533Z,64.50
2018-07-13T20:07:03.993Z,64.50
2018-07-13T20:09:32.465Z,64.50
2018-07-13T20:12:00.964Z,64.40
2018-07-13T20:14:29.448Z,64.40
2018-07-13T20:16:58.075Z,64.40
2018-07-13T20:19:26.454Z,64.50
2018-07-13T20:21:54.982Z,64.70
2018-07-13T20:24:23.572Z,64.80
2018-07-13T20:26:52.202Z,64.90
2018-07-13T20:31:49.042Z,65.30
2018-07-13T20:34:17.562Z,64.90
2018-07-13T20:39:14.209Z,64.90
2018-07-13T20:41:42.708Z,65.00
2018-07-13T20:44:11.186Z,65.00
2018-07-13T20:46:39.711Z,65.10
2018-07-13T20:49:08.182Z,65.10
2018-07-13T20:51:36.706Z,65.10
2018-07-13T20:54:05.150Z,65.10
2018-07-13T20:56:33.675Z,65.10
2018-07-13T20:59:02.223Z,65.10
2018-07-13T21:03:59.142Z,65.20
2018-07-13T21:06:27.665Z,65.20
2018-07-13T21:08:56.136Z,65.30
2018-07-13T21:11:24.639Z,65.30
2018-07-13T21:16:21.469Z,65.30
2018-07-13T21:18:49.959Z,65.20
2018-07-13T21:21:18.442Z,66.00
2018-07-13T21:23:47.882Z,65.20
2018-07-13T21:28:44.706Z,65.20
2018-07-13T21:31:13.206Z,65.00
2018-07-13T21:33:41.818Z,65.00
2018-07-13T21:36:10.278Z,65.00
2018-07-13T21:38:38.788Z,65.00
2018-07-13T21:41:07.311Z,65.00
2018-07-13T21:43:35.951Z,65.10
2018-07-13T21:46:04.440Z,65.10
2018-07-13T21:48:32.935Z,65.20
2018-07-13T21:51:01.450Z,65.30
2018-07-13T21:55:58.535Z,65.20
2018-07-13T21:58:27.076Z,65.40
2018-07-13T22:00:55.522Z,65.40
2018-07-13T22:03:24.060Z,65.40
2018-07-13T22:05:52.511Z,65.40
2018-07-13T22:08:21.001Z,65.40
2018-07-13T22:10:49.495Z,65.50
2018-07-13T22:13:17.967Z,65.50
2018-07-13T22:15:46.473Z,65.60
2018-07-13T22:18:14.953Z,65.60
2018-07-13T22:20:43.425Z,65.60
2018-07-13T22:23:12.096Z,65.60
2018-07-13T22:25:40.738Z,65.70
2018-07-13T22:28:09.315Z,65.70
2018-07-13T22:30:37.974Z,65.40
2018-07-13T22:33:07.441Z,65.70
2018-07-13T22:35:36.098Z,65.80
2018-07-13T22:38:04.842Z,65.80
2018-07-13T22:40:33.407Z,65.70
2018-07-13T22:45:30.319Z,65.90
2018-07-13T22:47:58.787Z,65.80
2018-07-13T22:50:27.394Z,65.80
2018-07-13T22:52:55.999Z,65.80
2018-07-13T22:55:24.563Z,65.70
2018-07-13T22:57:53.201Z,65.80
2018-07-13T23:00:21.799Z,65.90
2018-07-13T23:02:50.298Z,66.80
2018-07-13T23:07:47.059Z,65.90
2018-07-13T23:12:43.956Z,66.10
2018-07-13T23:15:12.514Z,66.10
2018-07-13T23:17:40.995Z,66.10
2018-07-13T23:20:09.584Z,66.10
2018-07-13T23:22:38.129Z,66.20
2018-07-13T23:25:06.949Z,66.20
2018-07-13T23:27:35.647Z,66.30
2018-07-13T23:32:32.425Z,66.30
2018-07-13T23:37:29.184Z,66.30
2018-07-13T23:39:57.820Z,66.40
2018-07-13T23:42:26.433Z,66.40
2018-07-13T23:44:54.987Z,66.40
2018-07-13T23:47:23.580Z,66.40
2018-07-13T23:49:52.168Z,66.40
2018-07-13T23:52:20.633Z,66.40
2018-07-13T23:54:49.197Z,66.40
2018-07-13T23:57:17.781Z,66.40
2018-07-13T23:59:46.317Z,66.40
